sensor_id;sensor_type;location;lat;lon;timestamp;P1;durP1;ratioP1;P2;durP2;ratioP2
27839;SDS011;15207;42.182;24.308;2023-12-28T00:01:07;12.35;;;7.25;;
27839;SDS011;15207;42.182;24.308;2023-12-28T00:03:33;18.90;;;8.40;;
27839;SDS011;15207;42.182;24.308;2023-12-28T00:05:58;14.60;;;8.20;;
27839;SDS011;15207;42.182;24.308;2023-12-28T00:08:24;14.75;;;8.10;;
27839;SDS011;15207;42.182;24.308;2023-12-28T00:10:49;13.10;;;7.35;;
27839;SDS011;15207;42.182;24.308;2023-12-28T00:13:14;16.80;;;8.90;;
27839;SDS011;15207;42.182;24.308;2023-12-28T00:15:40;17.40;;;8.90;;
27839;SDS011;15207;42.182;24.308;2023-12-28T00:18:05;15.25;;;8.55;;
27839;SDS011;15207;42.182;24.308;2023-12-28T00:20:31;16.50;;;8.60;;
27839;SDS011;15207;42.182;24.308;2023-12-28T00:25:23;15.43;;;7.80;;
27839;SDS011;15207;42.182;24.308;2023-12-28T00:27:48;18.20;;;8.90;;
27839;SDS011;15207;42.182;24.308;2023-12-28T00:30:14;14.45;;;8.80;;
27839;SDS011;15207;42.182;24.308;2023-12-28T00:32:42;18.75;;;9.10;;
27839;SDS011;15207;42.182;24.308;2023-12-28T00:44:50;20.20;;;9.80;;
27839;SDS011;15207;42.182;24.308;2023-12-28T00:47:15;15.40;;;9.10;;
27839;SDS011;15207;42.182;24.308;2023-12-28T00:49:41;16.50;;;9.70;;
27839;SDS011;15207;42.182;24.308;2023-12-28T00:52:06;15.60;;;9.40;;
27839;SDS011;15207;42.182;24.308;2023-12-28T00:54:31;19.05;;;8.95;;
27839;SDS011;15207;42.182;24.308;2023-12-28T00:56:57;15.20;;;8.65;;
27839;SDS011;15207;42.182;24.308;2023-12-28T01:04:13;16.50;;;8.00;;
27839;SDS011;15207;42.182;24.308;2023-12-28T01:06:38;13.75;;;7.55;;
27839;SDS011;15207;42.182;24.308;2023-12-28T01:09:05;12.00;;;7.20;;
27839;SDS011;15207;42.182;24.308;2023-12-28T01:11:31;13.40;;;7.30;;
27839;SDS011;15207;42.182;24.308;2023-12-28T01:13:57;12.00;;;7.70;;
27839;SDS011;15207;42.182;24.308;2023-12-28T01:16:24;16.40;;;9.20;;
27839;SDS011;15207;42.182;24.308;2023-12-28T01:21:14;18.85;;;9.55;;
27839;SDS011;15207;42.182;24.308;2023-12-28T01:23:40;18.50;;;9.20;;
27839;SDS011;15207;42.182;24.308;2023-12-28T01:26:05;18.80;;;10.37;;
27839;SDS011;15207;42.182;24.308;2023-12-28T01:28:31;20.90;;;10.50;;
27839;SDS011;15207;42.182;24.308;2023-12-28T01:30:56;25.35;;;10.55;;
27839;SDS011;15207;42.182;24.308;2023-12-28T01:33:21;22.95;;;10.70;;
27839;SDS011;15207;42.182;24.308;2023-12-28T01:35:47;17.90;;;9.40;;
27839;SDS011;15207;42.182;24.308;2023-12-28T01:38:12;16.85;;;9.40;;
27839;SDS011;15207;42.182;24.308;2023-12-28T01:40:38;16.33;;;9.33;;
27839;SDS011;15207;42.182;24.308;2023-12-28T01:43:03;18.65;;;9.60;;
27839;SDS011;15207;42.182;24.308;2023-12-28T01:47:54;15.65;;;9.50;;
27839;SDS011;15207;42.182;24.308;2023-12-28T01:50:23;15.70;;;8.40;;
27839;SDS011;15207;42.182;24.308;2023-12-28T01:55:15;21.00;;;9.75;;
27839;SDS011;15207;42.182;24.308;2023-12-28T01:57:41;21.35;;;10.20;;
27839;SDS011;15207;42.182;24.308;2023-12-28T02:00:07;20.05;;;9.90;;
27839;SDS011;15207;42.182;24.308;2023-12-28T02:02:33;18.50;;;9.50;;
27839;SDS011;15207;42.182;24.308;2023-12-28T02:04:59;17.70;;;9.30;;
27839;SDS011;15207;42.182;24.308;2023-12-28T02:07:25;21.20;;;9.90;;
27839;SDS011;15207;42.182;24.308;2023-12-28T02:10:07;18.15;;;9.65;;
27839;SDS011;15207;42.182;24.308;2023-12-28T02:12:33;17.90;;;8.60;;
27839;SDS011;15207;42.182;24.308;2023-12-28T02:14:58;27.00;;;10.00;;
27839;SDS011;15207;42.182;24.308;2023-12-28T02:17:28;19.25;;;8.55;;
27839;SDS011;15207;42.182;24.308;2023-12-28T02:20:00;20.80;;;8.90;;
27839;SDS011;15207;42.182;24.308;2023-12-28T02:22:31;20.90;;;9.30;;
27839;SDS011;15207;42.182;24.308;2023-12-28T02:27:25;28.65;;;10.10;;
27839;SDS011;15207;42.182;24.308;2023-12-28T02:29:51;23.87;;;9.50;;
27839;SDS011;15207;42.182;24.308;2023-12-28T02:34:47;17.70;;;9.70;;
27839;SDS011;15207;42.182;24.308;2023-12-28T02:37:17;17.30;;;9.33;;
27839;SDS011;15207;42.182;24.308;2023-12-28T02:39:43;21.00;;;9.30;;
27839;SDS011;15207;42.182;24.308;2023-12-28T02:42:12;18.50;;;9.40;;
27839;SDS011;15207;42.182;24.308;2023-12-28T02:44:37;20.45;;;9.90;;
27839;SDS011;15207;42.182;24.308;2023-12-28T02:47:03;15.70;;;9.40;;
27839;SDS011;15207;42.182;24.308;2023-12-28T02:49:28;18.60;;;10.30;;
27839;SDS011;15207;42.182;24.308;2023-12-28T02:54:19;20.35;;;9.75;;
27839;SDS011;15207;42.182;24.308;2023-12-28T02:56:44;20.55;;;10.30;;
27839;SDS011;15207;42.182;24.308;2023-12-28T02:59:10;18.85;;;9.50;;
27839;SDS011;15207;42.182;24.308;2023-12-28T03:01:35;20.00;;;10.60;;
27839;SDS011;15207;42.182;24.308;2023-12-28T03:04:01;16.50;;;9.90;;
27839;SDS011;15207;42.182;24.308;2023-12-28T03:08:51;16.60;;;9.20;;
27839;SDS011;15207;42.182;24.308;2023-12-28T03:11:17;21.20;;;9.00;;
27839;SDS011;15207;42.182;24.308;2023-12-28T03:13:42;16.95;;;8.90;;
27839;SDS011;15207;42.182;24.308;2023-12-28T03:16:07;12.80;;;8.10;;
27839;SDS011;15207;42.182;24.308;2023-12-28T03:18:33;11.80;;;7.20;;
27839;SDS011;15207;42.182;24.308;2023-12-28T03:20:59;14.40;;;7.50;;
27839;SDS011;15207;42.182;24.308;2023-12-28T03:23:25;13.20;;;7.10;;
27839;SDS011;15207;42.182;24.308;2023-12-28T03:25:50;12.60;;;7.40;;
27839;SDS011;15207;42.182;24.308;2023-12-28T03:30:41;11.30;;;6.90;;
27839;SDS011;15207;42.182;24.308;2023-12-28T03:33:07;15.60;;;8.60;;
27839;SDS011;15207;42.182;24.308;2023-12-28T03:35:32;20.90;;;9.50;;
27839;SDS011;15207;42.182;24.308;2023-12-28T03:37:57;13.70;;;8.20;;
27839;SDS011;15207;42.182;24.308;2023-12-28T03:40:23;15.80;;;9.20;;
27839;SDS011;15207;42.182;24.308;2023-12-28T03:42:48;23.70;;;8.90;;
27839;SDS011;15207;42.182;24.308;2023-12-28T03:45:14;25.00;;;10.25;;
27839;SDS011;15207;42.182;24.308;2023-12-28T03:47:39;19.20;;;9.30;;
27839;SDS011;15207;42.182;24.308;2023-12-28T03:50:05;24.90;;;9.45;;
27839;SDS011;15207;42.182;24.308;2023-12-28T03:52:31;18.00;;;9.50;;
27839;SDS011;15207;42.182;24.308;2023-12-28T03:54:57;19.05;;;10.10;;
27839;SDS011;15207;42.182;24.308;2023-12-28T03:57:22;15.40;;;9.40;;
27839;SDS011;15207;42.182;24.308;2023-12-28T03:59:48;15.43;;;9.75;;
27839;SDS011;15207;42.182;24.308;2023-12-28T04:02:14;18.90;;;9.75;;
27839;SDS011;15207;42.182;24.308;2023-12-28T04:04:39;18.80;;;9.90;;
27839;SDS011;15207;42.182;24.308;2023-12-28T04:09:33;19.70;;;10.50;;
27839;SDS011;15207;42.182;24.308;2023-12-28T04:11:59;26.05;;;10.60;;
27839;SDS011;15207;42.182;24.308;2023-12-28T04:16:50;22.90;;;10.50;;
27839;SDS011;15207;42.182;24.308;2023-12-28T04:19:15;20.70;;;9.75;;
27839;SDS011;15207;42.182;24.308;2023-12-28T04:24:09;23.80;;;10.45;;
27839;SDS011;15207;42.182;24.308;2023-12-28T04:29:00;25.40;;;10.20;;
27839;SDS011;15207;42.182;24.308;2023-12-28T04:31:25;24.00;;;11.20;;
27839;SDS011;15207;42.182;24.308;2023-12-28T04:33:51;21.40;;;10.60;;
27839;SDS011;15207;42.182;24.308;2023-12-28T04:36:16;20.40;;;9.50;;
27839;SDS011;15207;42.182;24.308;2023-12-28T04:38:42;22.10;;;9.80;;
27839;SDS011;15207;42.182;24.308;2023-12-28T04:41:09;12.70;;;7.40;;
27839;SDS011;15207;42.182;24.308;2023-12-28T04:43:35;12.90;;;7.80;;
27839;SDS011;15207;42.182;24.308;2023-12-28T04:46:04;13.80;;;7.90;;
27839;SDS011;15207;42.182;24.308;2023-12-28T04:48:30;16.10;;;9.40;;
27839;SDS011;15207;42.182;24.308;2023-12-28T04:50:56;16.60;;;10.30;;
27839;SDS011;15207;42.182;24.308;2023-12-28T04:58:13;48.50;;;25.35;;
27839;SDS011;15207;42.182;24.308;2023-12-28T05:00:39;47.60;;;25.50;;
27839;SDS011;15207;42.182;24.308;2023-12-28T05:03:04;38.90;;;23.30;;
27839;SDS011;15207;42.182;24.308;2023-12-28T05:05:31;48.70;;;28.20;;
27839;SDS011;15207;42.182;24.308;2023-12-28T05:07:56;45.55;;;27.15;;
27839;SDS011;15207;42.182;24.308;2023-12-28T05:10:21;41.80;;;25.60;;
27839;SDS011;15207;42.182;24.308;2023-12-28T05:12:47;41.50;;;24.20;;
27839;SDS011;15207;42.182;24.308;2023-12-28T05:17:38;31.80;;;19.30;;
27839;SDS011;15207;42.182;24.308;2023-12-28T05:22:28;37.10;;;21.60;;
27839;SDS011;15207;42.182;24.308;2023-12-28T05:24:54;32.30;;;21.80;;
27839;SDS011;15207;42.182;24.308;2023-12-28T05:27:19;40.95;;;25.10;;
27839;SDS011;15207;42.182;24.308;2023-12-28T05:29:45;38.55;;;23.15;;
27839;SDS011;15207;42.182;24.308;2023-12-28T05:32:10;42.95;;;23.40;;
27839;SDS011;15207;42.182;24.308;2023-12-28T05:34:35;36.10;;;21.10;;
27839;SDS011;15207;42.182;24.308;2023-12-28T05:37:01;35.30;;;22.50;;
27839;SDS011;15207;42.182;24.308;2023-12-28T05:39:26;41.10;;;23.63;;
27839;SDS011;15207;42.182;24.308;2023-12-28T05:41:51;58.90;;;26.80;;
27839;SDS011;15207;42.182;24.308;2023-12-28T05:46:42;47.00;;;25.10;;
27839;SDS011;15207;42.182;24.308;2023-12-28T05:49:08;39.00;;;23.55;;
27839;SDS011;15207;42.182;24.308;2023-12-28T05:51:37;39.70;;;24.65;;
27839;SDS011;15207;42.182;24.308;2023-12-28T05:54:05;45.10;;;23.60;;
27839;SDS011;15207;42.182;24.308;2023-12-28T05:56:30;33.50;;;21.25;;
27839;SDS011;15207;42.182;24.308;2023-12-28T05:58:56;36.40;;;20.70;;
27839;SDS011;15207;42.182;24.308;2023-12-28T06:01:21;34.90;;;21.20;;
27839;SDS011;15207;42.182;24.308;2023-12-28T06:03:46;36.10;;;18.40;;
27839;SDS011;15207;42.182;24.308;2023-12-28T06:06:14;32.80;;;19.10;;
27839;SDS011;15207;42.182;24.308;2023-12-28T06:08:40;35.00;;;19.40;;
27839;SDS011;15207;42.182;24.308;2023-12-28T06:11:05;42.40;;;23.15;;
27839;SDS011;15207;42.182;24.308;2023-12-28T06:13:30;33.70;;;19.60;;
27839;SDS011;15207;42.182;24.308;2023-12-28T06:15:56;34.60;;;19.60;;
27839;SDS011;15207;42.182;24.308;2023-12-28T06:18:21;41.10;;;21.40;;
27839;SDS011;15207;42.182;24.308;2023-12-28T06:20:47;37.50;;;18.80;;
27839;SDS011;15207;42.182;24.308;2023-12-28T06:23:12;34.30;;;18.75;;
27839;SDS011;15207;42.182;24.308;2023-12-28T06:25:37;36.10;;;17.40;;
27839;SDS011;15207;42.182;24.308;2023-12-28T06:28:03;30.20;;;15.50;;
27839;SDS011;15207;42.182;24.308;2023-12-28T06:32:54;25.80;;;15.50;;
27839;SDS011;15207;42.182;24.308;2023-12-28T06:35:19;26.70;;;12.90;;
27839;SDS011;15207;42.182;24.308;2023-12-28T06:37:45;22.75;;;12.60;;
27839;SDS011;15207;42.182;24.308;2023-12-28T06:40:11;17.10;;;12.00;;
27839;SDS011;15207;42.182;24.308;2023-12-28T06:42:37;22.80;;;12.40;;
27839;SDS011;15207;42.182;24.308;2023-12-28T06:45:05;28.05;;;14.25;;
27839;SDS011;15207;42.182;24.308;2023-12-28T06:47:31;39.50;;;21.20;;
27839;SDS011;15207;42.182;24.308;2023-12-28T06:49:56;53.15;;;22.60;;
27839;SDS011;15207;42.182;24.308;2023-12-28T06:52:22;49.80;;;24.40;;
27839;SDS011;15207;42.182;24.308;2023-12-28T06:54:50;74.20;;;31.30;;
27839;SDS011;15207;42.182;24.308;2023-12-28T06:57:16;73.60;;;32.40;;
27839;SDS011;15207;42.182;24.308;2023-12-28T06:59:41;61.90;;;30.30;;
27839;SDS011;15207;42.182;24.308;2023-12-28T07:02:07;61.20;;;31.25;;
27839;SDS011;15207;42.182;24.308;2023-12-28T07:04:32;90.40;;;42.15;;
27839;SDS011;15207;42.182;24.308;2023-12-28T07:06:58;90.85;;;44.00;;
27839;SDS011;15207;42.182;24.308;2023-12-28T07:09:23;65.45;;;35.55;;
27839;SDS011;15207;42.182;24.308;2023-12-28T07:11:49;62.00;;;32.10;;
27839;SDS011;15207;42.182;24.308;2023-12-28T07:14:14;80.00;;;41.00;;
27839;SDS011;15207;42.182;24.308;2023-12-28T07:16:39;76.10;;;36.50;;
27839;SDS011;15207;42.182;24.308;2023-12-28T07:21:30;87.20;;;39.30;;
27839;SDS011;15207;42.182;24.308;2023-12-28T07:26:21;74.10;;;36.40;;
27839;SDS011;15207;42.182;24.308;2023-12-28T07:28:46;62.50;;;30.40;;
27839;SDS011;15207;42.182;24.308;2023-12-28T07:31:23;47.20;;;27.30;;
27839;SDS011;15207;42.182;24.308;2023-12-28T07:36:17;43.40;;;23.20;;
27839;SDS011;15207;42.182;24.308;2023-12-28T07:41:09;39.50;;;21.10;;
27839;SDS011;15207;42.182;24.308;2023-12-28T07:43:34;34.10;;;19.90;;
27839;SDS011;15207;42.182;24.308;2023-12-28T07:46:01;29.75;;;18.05;;
27839;SDS011;15207;42.182;24.308;2023-12-28T07:48:26;31.20;;;17.60;;
27839;SDS011;15207;42.182;24.308;2023-12-28T07:50:52;29.00;;;17.70;;
27839;SDS011;15207;42.182;24.308;2023-12-28T07:53:17;30.10;;;18.50;;
27839;SDS011;15207;42.182;24.308;2023-12-28T07:55:43;31.60;;;18.60;;
27839;SDS011;15207;42.182;24.308;2023-12-28T08:00:33;34.40;;;17.50;;
27839;SDS011;15207;42.182;24.308;2023-12-28T08:02:59;28.40;;;18.20;;
27839;SDS011;15207;42.182;24.308;2023-12-28T08:07:49;31.40;;;19.10;;
27839;SDS011;15207;42.182;24.308;2023-12-28T08:10:15;28.95;;;17.70;;
27839;SDS011;15207;42.182;24.308;2023-12-28T08:12:40;31.25;;;18.80;;
27839;SDS011;15207;42.182;24.308;2023-12-28T08:15:08;27.10;;;17.30;;
27839;SDS011;15207;42.182;24.308;2023-12-28T08:17:33;31.00;;;16.30;;
27839;SDS011;15207;42.182;24.308;2023-12-28T08:19:59;27.60;;;16.80;;
27839;SDS011;15207;42.182;24.308;2023-12-28T08:27:15;28.55;;;12.95;;
27839;SDS011;15207;42.182;24.308;2023-12-28T08:32:07;26.20;;;11.10;;
27839;SDS011;15207;42.182;24.308;2023-12-28T08:34:32;18.70;;;10.80;;
27839;SDS011;15207;42.182;24.308;2023-12-28T08:36:57;29.80;;;15.75;;
27839;SDS011;15207;42.182;24.308;2023-12-28T08:39:23;38.65;;;21.75;;
27839;SDS011;15207;42.182;24.308;2023-12-28T08:41:48;26.40;;;14.45;;
27839;SDS011;15207;42.182;24.308;2023-12-28T08:44:14;35.75;;;16.40;;
27839;SDS011;15207;42.182;24.308;2023-12-28T08:46:39;44.35;;;19.25;;
27839;SDS011;15207;42.182;24.308;2023-12-28T08:49:04;41.15;;;16.65;;
27839;SDS011;15207;42.182;24.308;2023-12-28T08:51:30;25.50;;;14.00;;
27839;SDS011;15207;42.182;24.308;2023-12-28T08:53:55;25.20;;;13.40;;
27839;SDS011;15207;42.182;24.308;2023-12-28T08:56:21;19.60;;;11.60;;
27839;SDS011;15207;42.182;24.308;2023-12-28T08:58:47;20.00;;;12.20;;
27839;SDS011;15207;42.182;24.308;2023-12-28T09:06:15;28.45;;;14.15;;
27839;SDS011;15207;42.182;24.308;2023-12-28T09:08:42;23.90;;;12.90;;
27839;SDS011;15207;42.182;24.308;2023-12-28T09:11:11;34.10;;;14.10;;
27839;SDS011;15207;42.182;24.308;2023-12-28T09:16:02;23.20;;;12.50;;
27839;SDS011;15207;42.182;24.308;2023-12-28T09:18:28;25.20;;;13.90;;
27839;SDS011;15207;42.182;24.308;2023-12-28T09:20:53;27.50;;;13.85;;
27839;SDS011;15207;42.182;24.308;2023-12-28T09:23:18;23.80;;;13.30;;
27839;SDS011;15207;42.182;24.308;2023-12-28T09:25:44;27.85;;;14.00;;
27839;SDS011;15207;42.182;24.308;2023-12-28T09:28:09;25.50;;;14.20;;
27839;SDS011;15207;42.182;24.308;2023-12-28T09:30:35;22.60;;;12.80;;
27839;SDS011;15207;42.182;24.308;2023-12-28T09:33:00;29.00;;;13.55;;
27839;SDS011;15207;42.182;24.308;2023-12-28T09:35:25;21.90;;;11.90;;
27839;SDS011;15207;42.182;24.308;2023-12-28T09:40:16;21.30;;;11.40;;
27839;SDS011;15207;42.182;24.308;2023-12-28T09:43:01;20.70;;;10.90;;
27839;SDS011;15207;42.182;24.308;2023-12-28T09:45:34;15.20;;;8.80;;
27839;SDS011;15207;42.182;24.308;2023-12-28T09:50:28;18.60;;;9.60;;
27839;SDS011;15207;42.182;24.308;2023-12-28T09:55:19;22.75;;;10.35;;
27839;SDS011;15207;42.182;24.308;2023-12-28T09:57:45;17.05;;;10.10;;
27839;SDS011;15207;42.182;24.308;2023-12-28T10:00:11;17.30;;;10.50;;
27839;SDS011;15207;42.182;24.308;2023-12-28T10:02:38;17.65;;;10.85;;
27839;SDS011;15207;42.182;24.308;2023-12-28T10:05:06;20.85;;;11.65;;
27839;SDS011;15207;42.182;24.308;2023-12-28T10:07:32;17.40;;;10.60;;
27839;SDS011;15207;42.182;24.308;2023-12-28T10:12:22;19.50;;;10.40;;
27839;SDS011;15207;42.182;24.308;2023-12-28T10:14:50;17.20;;;10.20;;
27839;SDS011;15207;42.182;24.308;2023-12-28T10:19:41;15.40;;;9.15;;
27839;SDS011;15207;42.182;24.308;2023-12-28T10:22:06;18.90;;;10.40;;
27839;SDS011;15207;42.182;24.308;2023-12-28T10:24:32;25.10;;;10.80;;
27839;SDS011;15207;42.182;24.308;2023-12-28T10:29:25;20.05;;;8.70;;
27839;SDS011;15207;42.182;24.308;2023-12-28T10:31:51;17.30;;;9.50;;
27839;SDS011;15207;42.182;24.308;2023-12-28T10:36:43;26.80;;;9.90;;
27839;SDS011;15207;42.182;24.308;2023-12-28T10:39:10;20.90;;;9.20;;
27839;SDS011;15207;42.182;24.308;2023-12-28T10:44:06;15.20;;;7.80;;
27839;SDS011;15207;42.182;24.308;2023-12-28T10:46:33;18.40;;;8.25;;
27839;SDS011;15207;42.182;24.308;2023-12-28T10:49:11;15.70;;;8.80;;
27839;SDS011;15207;42.182;24.308;2023-12-28T10:51:41;16.20;;;7.60;;
27839;SDS011;15207;42.182;24.308;2023-12-28T10:54:21;14.30;;;8.10;;
27839;SDS011;15207;42.182;24.308;2023-12-28T10:56:49;17.90;;;8.50;;
27839;SDS011;15207;42.182;24.308;2023-12-28T11:04:43;16.30;;;8.40;;
27839;SDS011;15207;42.182;24.308;2023-12-28T11:09:38;22.70;;;9.40;;
27839;SDS011;15207;42.182;24.308;2023-12-28T11:12:07;18.60;;;8.60;;
27839;SDS011;15207;42.182;24.308;2023-12-28T11:14:35;26.65;;;9.35;;
27839;SDS011;15207;42.182;24.308;2023-12-28T11:17:04;25.20;;;7.70;;
27839;SDS011;15207;42.182;24.308;2023-12-28T11:19:30;14.55;;;7.00;;
27839;SDS011;15207;42.182;24.308;2023-12-28T11:21:56;16.20;;;6.70;;
27839;SDS011;15207;42.182;24.308;2023-12-28T11:24:25;14.30;;;6.90;;
27839;SDS011;15207;42.182;24.308;2023-12-28T11:29:19;13.10;;;6.70;;
27839;SDS011;15207;42.182;24.308;2023-12-28T11:34:15;9.15;;;5.50;;
27839;SDS011;15207;42.182;24.308;2023-12-28T11:36:51;14.20;;;6.00;;
27839;SDS011;15207;42.182;24.308;2023-12-28T11:41:59;14.60;;;5.40;;
27839;SDS011;15207;42.182;24.308;2023-12-28T11:44:26;13.50;;;5.50;;
27839;SDS011;15207;42.182;24.308;2023-12-28T11:46:51;12.80;;;6.10;;
27839;SDS011;15207;42.182;24.308;2023-12-28T11:49:17;13.00;;;6.40;;
27839;SDS011;15207;42.182;24.308;2023-12-28T11:51:56;9.60;;;6.20;;
27839;SDS011;15207;42.182;24.308;2023-12-28T11:56:51;13.25;;;6.15;;
27839;SDS011;15207;42.182;24.308;2023-12-28T11:59:18;10.70;;;5.30;;
27839;SDS011;15207;42.182;24.308;2023-12-28T12:01:49;9.50;;;5.20;;
27839;SDS011;15207;42.182;24.308;2023-12-28T12:04:18;8.80;;;5.30;;
27839;SDS011;15207;42.182;24.308;2023-12-28T12:06:46;10.05;;;4.95;;
27839;SDS011;15207;42.182;24.308;2023-12-28T12:09:12;7.15;;;4.70;;
27839;SDS011;15207;42.182;24.308;2023-12-28T12:11:38;10.55;;;4.70;;
27839;SDS011;15207;42.182;24.308;2023-12-28T12:14:07;15.10;;;5.30;;
27839;SDS011;15207;42.182;24.308;2023-12-28T12:16:34;9.50;;;4.40;;
27839;SDS011;15207;42.182;24.308;2023-12-28T12:19:01;11.20;;;5.00;;
27839;SDS011;15207;42.182;24.308;2023-12-28T12:21:27;10.30;;;4.70;;
27839;SDS011;15207;42.182;24.308;2023-12-28T12:23:52;11.90;;;4.50;;
27839;SDS011;15207;42.182;24.308;2023-12-28T12:28:46;11.03;;;4.93;;
27839;SDS011;15207;42.182;24.308;2023-12-28T12:33:37;8.35;;;4.60;;
27839;SDS011;15207;42.182;24.308;2023-12-28T12:36:04;7.00;;;3.90;;
27839;SDS011;15207;42.182;24.308;2023-12-28T12:38:31;8.20;;;4.40;;
27839;SDS011;15207;42.182;24.308;2023-12-28T12:40:57;10.65;;;4.95;;
27839;SDS011;15207;42.182;24.308;2023-12-28T12:43:23;12.10;;;4.90;;
27839;SDS011;15207;42.182;24.308;2023-12-28T12:45:49;14.80;;;5.70;;
27839;SDS011;15207;42.182;24.308;2023-12-28T12:48:15;15.20;;;6.20;;
27839;SDS011;15207;42.182;24.308;2023-12-28T12:50:40;15.20;;;4.80;;
27839;SDS011;15207;42.182;24.308;2023-12-28T12:53:06;17.40;;;5.20;;
27839;SDS011;15207;42.182;24.308;2023-12-28T12:55:31;12.60;;;4.50;;
27839;SDS011;15207;42.182;24.308;2023-12-28T12:57:57;11.20;;;5.30;;
27839;SDS011;15207;42.182;24.308;2023-12-28T13:00:23;9.50;;;4.90;;
27839;SDS011;15207;42.182;24.308;2023-12-28T13:02:49;8.10;;;5.20;;
27839;SDS011;15207;42.182;24.308;2023-12-28T13:05:20;17.90;;;5.60;;
27839;SDS011;15207;42.182;24.308;2023-12-28T13:07:45;16.70;;;5.00;;
27839;SDS011;15207;42.182;24.308;2023-12-28T13:10:11;29.80;;;6.10;;
27839;SDS011;15207;42.182;24.308;2023-12-28T13:12:36;11.70;;;4.90;;
27839;SDS011;15207;42.182;24.308;2023-12-28T13:15:03;10.25;;;4.95;;
27839;SDS011;15207;42.182;24.308;2023-12-28T13:17:31;17.90;;;5.80;;
27839;SDS011;15207;42.182;24.308;2023-12-28T13:19:56;19.00;;;5.90;;
27839;SDS011;15207;42.182;24.308;2023-12-28T13:22:21;12.10;;;4.75;;
27839;SDS011;15207;42.182;24.308;2023-12-28T13:24:47;14.20;;;6.20;;
27839;SDS011;15207;42.182;24.308;2023-12-28T13:29:39;13.50;;;5.20;;
27839;SDS011;15207;42.182;24.308;2023-12-28T13:32:05;14.60;;;5.00;;
27839;SDS011;15207;42.182;24.308;2023-12-28T13:34:30;10.15;;;5.05;;
27839;SDS011;15207;42.182;24.308;2023-12-28T13:36:56;9.20;;;4.90;;
27839;SDS011;15207;42.182;24.308;2023-12-28T13:39:21;14.45;;;5.50;;
27839;SDS011;15207;42.182;24.308;2023-12-28T13:41:47;11.60;;;6.20;;
27839;SDS011;15207;42.182;24.308;2023-12-28T13:44:12;18.35;;;6.30;;
27839;SDS011;15207;42.182;24.308;2023-12-28T13:49:03;14.40;;;6.10;;
27839;SDS011;15207;42.182;24.308;2023-12-28T13:51:32;11.65;;;4.60;;
27839;SDS011;15207;42.182;24.308;2023-12-28T13:53:57;9.30;;;4.70;;
27839;SDS011;15207;42.182;24.308;2023-12-28T13:56:23;19.80;;;6.30;;
27839;SDS011;15207;42.182;24.308;2023-12-28T14:01:13;10.35;;;5.35;;
27839;SDS011;15207;42.182;24.308;2023-12-28T14:03:39;13.90;;;5.25;;
27839;SDS011;15207;42.182;24.308;2023-12-28T14:06:05;10.20;;;4.90;;
27839;SDS011;15207;42.182;24.308;2023-12-28T14:08:31;10.40;;;5.10;;
27839;SDS011;15207;42.182;24.308;2023-12-28T14:10:57;13.60;;;4.50;;
27839;SDS011;15207;42.182;24.308;2023-12-28T14:13:22;15.90;;;6.10;;
27839;SDS011;15207;42.182;24.308;2023-12-28T14:15:48;22.70;;;6.90;;
27839;SDS011;15207;42.182;24.308;2023-12-28T14:18:13;18.85;;;6.20;;
27839;SDS011;15207;42.182;24.308;2023-12-28T14:20:39;12.60;;;6.25;;
27839;SDS011;15207;42.182;24.308;2023-12-28T14:23:04;13.10;;;5.90;;
27839;SDS011;15207;42.182;24.308;2023-12-28T14:25:30;17.85;;;5.35;;
27839;SDS011;15207;42.182;24.308;2023-12-28T14:27:56;11.70;;;5.80;;
27839;SDS011;15207;42.182;24.308;2023-12-28T14:30:21;16.70;;;5.80;;
27839;SDS011;15207;42.182;24.308;2023-12-28T14:32:47;20.70;;;5.90;;
27839;SDS011;15207;42.182;24.308;2023-12-28T14:37:41;14.50;;;5.90;;
27839;SDS011;15207;42.182;24.308;2023-12-28T14:40:06;13.10;;;5.80;;
27839;SDS011;15207;42.182;24.308;2023-12-28T14:42:32;20.50;;;6.85;;
27839;SDS011;15207;42.182;24.308;2023-12-28T14:44:59;16.20;;;6.60;;
27839;SDS011;15207;42.182;24.308;2023-12-28T14:47:26;17.60;;;8.30;;
27839;SDS011;15207;42.182;24.308;2023-12-28T14:49:52;21.10;;;10.10;;
27839;SDS011;15207;42.182;24.308;2023-12-28T14:52:20;19.90;;;8.70;;
27839;SDS011;15207;42.182;24.308;2023-12-28T14:54:45;28.20;;;10.55;;
27839;SDS011;15207;42.182;24.308;2023-12-28T14:57:11;20.50;;;9.77;;
27839;SDS011;15207;42.182;24.308;2023-12-28T14:59:37;29.52;;;9.70;;
27839;SDS011;15207;42.182;24.308;2023-12-28T15:02:02;28.90;;;9.45;;
27839;SDS011;15207;42.182;24.308;2023-12-28T15:04:28;21.80;;;9.00;;
27839;SDS011;15207;42.182;24.308;2023-12-28T15:06:54;25.90;;;9.90;;
27839;SDS011;15207;42.182;24.308;2023-12-28T15:09:19;19.85;;;8.65;;
27839;SDS011;15207;42.182;24.308;2023-12-28T15:14:10;27.10;;;10.40;;
27839;SDS011;15207;42.182;24.308;2023-12-28T15:16:36;57.60;;;23.10;;
27839;SDS011;15207;42.182;24.308;2023-12-28T15:19:02;66.10;;;27.40;;
27839;SDS011;15207;42.182;24.308;2023-12-28T15:21:27;65.25;;;29.20;;
27839;SDS011;15207;42.182;24.308;2023-12-28T15:23:53;68.00;;;31.80;;
27839;SDS011;15207;42.182;24.308;2023-12-28T15:26:19;92.40;;;47.60;;
27839;SDS011;15207;42.182;24.308;2023-12-28T15:28:47;94.95;;;45.70;;
27839;SDS011;15207;42.182;24.308;2023-12-28T15:31:16;72.90;;;36.10;;
27839;SDS011;15207;42.182;24.308;2023-12-28T15:33:41;64.70;;;31.20;;
27839;SDS011;15207;42.182;24.308;2023-12-28T15:36:06;62.15;;;28.55;;
27839;SDS011;15207;42.182;24.308;2023-12-28T15:38:32;60.00;;;22.80;;
27839;SDS011;15207;42.182;24.308;2023-12-28T15:40:57;45.30;;;21.50;;
27839;SDS011;15207;42.182;24.308;2023-12-28T15:43:23;39.70;;;20.00;;
27839;SDS011;15207;42.182;24.308;2023-12-28T15:48:13;46.60;;;21.60;;
27839;SDS011;15207;42.182;24.308;2023-12-28T15:50:39;45.35;;;21.20;;
27839;SDS011;15207;42.182;24.308;2023-12-28T15:53:04;44.15;;;21.60;;
27839;SDS011;15207;42.182;24.308;2023-12-28T15:55:29;46.40;;;24.20;;
27839;SDS011;15207;42.182;24.308;2023-12-28T15:57:55;59.70;;;26.40;;
27839;SDS011;15207;42.182;24.308;2023-12-28T16:00:20;84.70;;;33.30;;
27839;SDS011;15207;42.182;24.308;2023-12-28T16:02:46;78.75;;;32.40;;
27839;SDS011;15207;42.182;24.308;2023-12-28T16:05:11;70.90;;;31.80;;
27839;SDS011;15207;42.182;24.308;2023-12-28T16:07:37;60.95;;;26.40;;
27839;SDS011;15207;42.182;24.308;2023-12-28T16:10:03;69.45;;;27.45;;
27839;SDS011;15207;42.182;24.308;2023-12-28T16:12:30;54.15;;;25.00;;
27839;SDS011;15207;42.182;24.308;2023-12-28T16:14:55;52.20;;;21.90;;
27839;SDS011;15207;42.182;24.308;2023-12-28T16:17:21;40.55;;;17.35;;
27839;SDS011;15207;42.182;24.308;2023-12-28T16:19:47;48.40;;;16.55;;
27839;SDS011;15207;42.182;24.308;2023-12-28T16:24:38;37.00;;;15.70;;
27839;SDS011;15207;42.182;24.308;2023-12-28T16:27:03;38.20;;;14.10;;
27839;SDS011;15207;42.182;24.308;2023-12-28T16:29:29;29.10;;;14.20;;
27839;SDS011;15207;42.182;24.308;2023-12-28T16:34:25;26.55;;;12.85;;
27839;SDS011;15207;42.182;24.308;2023-12-28T16:39:16;27.60;;;12.55;;
27839;SDS011;15207;42.182;24.308;2023-12-28T16:41:42;27.70;;;12.70;;
27839;SDS011;15207;42.182;24.308;2023-12-28T16:46:33;31.30;;;12.60;;